KO4LCK Weather Reports


time (UTC)temp
F
wind
direction
speed
knots
gust
knots
rain 1hr
in
rain 24hr
in
rain mn
in
humidity
%
barometer
mb
20260906100906 72 335 0.0 0.0 0.00 0.00 0.00 96 1013.6
20260906100406 72 34 1.7 2.6 0.00 0.00 0.00 96 1013.6
20260906095901 72 30 1.7 2.6 0.00 0.00 0.00 96 1013.7
20260906095356 72 12 1.7 2.6 0.00 0.00 0.00 96 1013.7
20260906094855 72 2 1.7 1.7 0.00 0.00 0.00 96 1013.8
20260906094351 71 0 0.0 0.0 0.00 0.00 0.00 96 1013.9
20260906093847 72 317 0.0 0.0 0.00 0.00 0.00 96 1014.0
20260906093343 72 275 0.0 0.0 0.00 0.00 0.00 96 1014.0
20260906092843 72 275 0.0 0.0 0.00 0.00 0.00 96 1014.0
20260906092337 72 271 0.0 0.0 0.00 0.00 0.00 96 1014.1
20260906091833 72 271 0.0 0.0 0.00 0.00 0.00 96 1013.9
20260906091329 72 305 0.0 0.0 0.00 0.00 0.00 96 1014.0
20260906090826 72 323 0.0 0.0 0.00 0.00 0.00 96 1013.9
20260906090325 72 304 0.0 0.0 0.00 0.00 0.00 96 1013.8
20260906085825 72 322 0.0 0.0 0.00 0.00 0.00 96 1014.0
20260906085324 72 318 0.0 0.0 0.00 0.00 0.00 96 1013.8
20260906084819 71 318 0.0 0.0 0.00 0.00 0.00 96 1013.8
20260906084318 71 20 0.0 0.9 0.00 0.00 0.00 96 1014.0
20260906083813 72 0 0.9 1.7 0.00 0.00 0.00 96 1014.1
20260906083308 72 324 0.0 0.9 0.00 0.00 0.00 96 1013.8
20260906082803 72 291 0.0 0.0 0.00 0.00 0.00 96 1013.8
20260906082258 72 291 0.0 0.0 0.00 0.00 0.00 96 1013.6
20260906081754 72 291 0.0 0.0 0.00 0.00 0.00 96 1013.5
20260906081249 72 290 0.0 0.0 0.00 0.00 0.00 96 1013.3
20260906080746 72 288 0.0 0.0 0.00 0.00 0.00 96 1013.1
20260906080242 72 288 0.0 0.0 0.00 0.00 0.00 96 1013.1
20260906075742 72 288 0.0 0.9 0.00 0.00 0.00 96 1013.2
20260906075242 72 313 0.0 0.0 0.00 0.00 0.00 96 1013.2
20260906074737 72 314 0.0 0.0 0.00 0.00 0.00 96 1013.3
20260906074236 72 325 0.0 0.9 0.00 0.00 0.00 96 1013.3
20260906073736 72 9 0.0 0.0 0.00 0.00 0.00 95 1013.2
20260906073231 72 310 0.0 0.0 0.00 0.00 0.00 96 1013.3
20260906072727 72 335 0.0 0.0 0.00 0.00 0.00 96 1013.5
20260906072222 72 306 0.0 0.0 0.00 0.00 0.00 95 1013.3
20260906071718 72 313 0.0 0.0 0.00 0.00 0.00 95 1013.5
20260906071218 72 312 0.0 0.0 0.00 0.00 0.00 95 1013.7
20260906070715 72 313 0.0 0.0 0.00 0.00 0.00 95 1013.6
20260906070210 72 316 0.0 0.0 0.00 0.00 0.00 95 1013.3
20260906065709 72 333 0.0 0.0 0.00 0.00 0.00 95 1013.2
20260906065205 72 326 0.0 0.0 0.00 0.00 0.00 95 1013.4
20260906064701 72 317 0.0 0.0 0.00 0.00 0.00 95 1013.6
20260906064201 72 318 0.0 0.0 0.00 0.00 0.00 95 1013.7
20260906063656 72 326 0.0 0.0 0.00 0.00 0.00 95 1013.6
20260906063152 72 337 0.0 0.0 0.00 0.00 0.00 95 1013.5
20260906062648 73 320 0.0 0.0 0.00 0.00 0.00 95 1013.5
20260906062146 72 320 0.0 0.0 0.00 0.00 0.00 95 1013.5
20260906061642 72 320 0.0 0.0 0.00 0.00 0.00 95 1013.7
20260906061143 72 320 0.0 0.0 0.00 0.00 0.00 94 1013.6
20260906060639 73 320 0.0 0.0 0.00 0.00 0.00 94 1013.8
20260906060136 73 309 0.0 0.0 0.00 0.00 0.00 94 1013.9
20260906055632 73 314 0.0 0.0 0.00 0.00 0.00 94 1013.7
20260906055127 73 314 0.0 0.0 0.00 0.00 0.00 94 1013.7
20260906054622 73 314 0.0 0.0 0.00 0.00 0.00 94 1013.6
20260906054117 73 316 0.0 0.0 0.00 0.00 0.00 94 1013.6
20260906053614 73 348 0.0 0.0 0.00 0.00 0.00 93 1014.0
20260906053114 73 13 0.9 0.9 0.00 0.00 0.00 93 1014.0
20260906052609 73 29 1.7 1.7 0.00 0.00 0.00 93 1014.0
20260906052106 74 23 0.9 0.9 0.00 0.00 0.00 92 1014.1
20260906051602 74 305 0.0 0.0 0.00 0.00 0.00 91 1014.0
20260906051057 74 304 0.0 0.0 0.00 0.00 0.00 91 1014.1
20260906050552 74 307 0.0 0.0 0.00 0.00 0.00 91 1014.1
20260906050047 74 296 0.0 0.0 0.00 0.00 0.00 92 1014.1
20260906045545 74 285 0.0 0.0 0.00 0.00 0.00 92 1014.1
20260906045041 74 284 0.0 0.0 0.00 0.00 0.00 92 1014.2
20260906044537 74 271 0.0 0.0 0.00 0.00 0.00 92 1014.3
20260906044032 74 287 0.0 0.0 0.00 0.00 0.00 92 1014.3
20260906043528 74 292 0.0 0.0 0.00 0.00 0.00 92 1014.4
20260906043024 74 327 0.0 0.0 0.00 0.00 0.00 91 1014.6
20260906042522 74 301 0.0 0.0 0.00 0.00 0.00 92 1014.5
20260906042017 74 302 0.0 0.0 0.00 0.00 0.00 92 1014.3
20260906041514 74 317 0.0 0.0 0.00 0.00 0.00 92 1014.4
20260906041013 74 345 0.0 0.0 0.00 0.00 0.00 91 1014.3
20260906040508 74 318 0.0 0.0 0.00 0.00 0.00 91 1014.1
20260906040004 75 351 0.0 0.0 0.00 0.01 0.01 91 1014.2
20260906035459 75 316 0.0 0.0 0.00 0.01 0.01 90 1014.3
20260906034955 75 302 0.0 0.0 0.00 0.01 0.01 90 1014.3
20260906034454 75 323 0.0 0.0 0.00 0.01 0.01 89 1014.6
20260906033949 75 291 0.0 0.0 0.00 0.01 0.01 89 1014.5
20260906033444 75 294 0.0 0.0 0.00 0.01 0.01 89 1014.5
20260906032940 75 307 0.0 0.0 0.00 0.01 0.01 89 1014.4
20260906032437 75 341 0.0 0.0 0.00 0.01 0.01 88 1014.4
20260906031936 76 312 0.0 0.0 0.00 0.01 0.01 87 1014.3
20260906031432 77 319 0.0 0.0 0.00 0.01 0.01 85 1014.4
20260906030927 78 318 0.0 0.9 0.00 0.01 0.01 83 1014.4
20260906030421 78 307 0.0 0.9 0.00 0.01 0.01 80 1014.4
20260906025916 79 291 0.0 0.9 0.00 0.01 0.01 79 1014.4
20260906025410 79 324 0.9 1.7 0.00 0.01 0.01 78 1014.3
20260906024909 79 307 0.0 0.9 0.00 0.01 0.01 78 1014.4
20260906024409 78 322 0.9 0.9 0.00 0.01 0.01 79 1014.3
20260906023904 78 262 0.9 1.7 0.00 0.01 0.01 80 1014.3
20260906023401 78 341 0.0 0.0 0.00 0.01 0.01 82 1014.1
20260906022900 78 318 0.0 0.0 0.00 0.01 0.01 82 1014.4
20260906022355 77 331 0.9 2.6 0.00 0.01 0.01 84 1014.3
20260906021851 77 354 0.0 0.0 0.00 0.01 0.01 89 1014.0
20260906021350 77 286 0.0 0.0 0.00 0.01 0.01 88 1014.1
20260906020845 76 20 0.0 0.0 0.00 0.01 0.01 90 1014.2
20260906020344 76 17 0.9 1.7 0.00 0.01 0.01 91 1014.5
20260906015840 76 10 1.7 1.7 0.00 0.01 0.01 90 1014.5
20260906015339 77 317 0.0 0.0 0.00 0.01 0.01 90 1014.5
20260906014839 76 350 0.0 1.7 0.00 0.01 0.01 90 1014.3
20260906014333 77 318 0.0 0.0 0.00 0.01 0.01 90 1014.2
20260906013830 77 304 0.0 0.0 0.00 0.01 0.01 89 1013.9
20260906013325 77 313 0.0 0.0 0.00 0.01 0.01 89 1014.1
20260906012821 77 15 0.9 0.9 0.00 0.01 0.01 88 1013.9
20260906012320 77 310 0.0 0.0 0.00 0.01 0.01 90 1013.9
20260906011815 77 287 0.0 0.0 0.00 0.01 0.01 90 1013.8
20260906011309 77 302 0.0 0.0 0.00 0.01 0.01 92 1013.7
20260906010806 76 330 0.0 0.0 0.00 0.01 0.01 92 1013.6
20260906010301 76 263 0.0 0.0 0.00 0.01 0.01 93 1013.3
20260906005756 76 263 0.0 0.0 0.00 0.01 0.01 93 1013.3
20260906005255 76 295 0.0 0.0 0.00 0.01 0.01 93 1012.9
20260906004754 76 340 0.0 0.9 0.00 0.01 0.01 93 1012.7
20260906004250 77 323 0.0 0.0 0.00 0.01 0.01 92 1012.7
20260906003749 77 11 0.0 0.0 0.00 0.01 0.01 91 1012.6
20260906003245 78 43 0.9 1.7 0.00 0.01 0.01 88 1012.6
20260906002740 78 342 0.0 0.0 0.00 0.01 0.01 88 1012.5
20260906002240 78 330 0.0 0.9 0.00 0.01 0.01 87 1012.6
20260906001736 78 296 0.0 0.0 0.00 0.01 0.01 87 1012.5
20260906001231 78 299 0.0 0.0 0.00 0.01 0.01 88 1012.5
20260906000726 78 311 0.0 0.0 0.00 0.01 0.01 87 1012.8
20260906000226 78 307 0.0 0.0 0.00 0.01 0.01 88 1012.8
20260905235721 78 331 0.0 0.0 0.00 0.01 0.01 89 1012.9
20260905235215 78 325 0.0 0.0 0.00 0.01 0.01 89 1013.0
20260905234711 79 345 0.0 0.9 0.00 0.01 0.01 88 1013.0
20260905234206 79 294 0.0 0.0 0.00 0.01 0.01 88 1013.2
20260905233701 79 351 0.9 1.7 0.00 0.01 0.01 88 1013.0
20260905233201 79 11 0.9 0.9 0.00 0.01 0.01 86 1013.1
20260905232656 79 286 0.0 0.0 0.00 0.01 0.01 87 1012.8
20260905232152 78 291 0.0 0.0 0.00 0.01 0.01 88 1012.8
20260905231647 78 263 0.0 0.0 0.00 0.01 0.01 89 1012.5
20260905231143 78 244 0.0 0.9 0.00 0.01 0.01 90 1012.4
20260905230639 78 322 0.0 0.0 0.00 0.01 0.01 91 1012.1
20260905230137 78 17 1.7 2.6 0.00 0.01 0.01 91 1012.1
20260905225637 78 31 1.7 3.5 0.00 0.01 0.01 89 1012.0
20260905225137 78 22 3.5 5.2 0.00 0.01 0.01 90 1012.2
20260905224636 79 39 1.7 1.7 0.00 0.01 0.01 87 1012.3
20260905224136 79 3 0.0 1.7 0.00 0.01 0.01 83 1012.1
20260905223633 79 8 0.9 5.2 0.00 0.01 0.01 81 1012.2
20260905223129 79 18 1.7 3.5 0.00 0.01 0.01 82 1012.2
20260905222624 78 347 2.6 3.5 0.07 0.01 0.01 83 1012.2
20260905222119 79 15 1.7 7.0 0.07 0.01 0.01 81 1012.3
20260905221615 80 21 2.6 7.0 0.00 0.00 0.00 80 1012.4
20260905221111 83 92 5.2 11.3 0.00 0.00 0.00 75 1012.7
20260905220607 90 88 9.6 16.5 0.00 0.00 0.00 62 1012.7
20260905220103 93 3 4.3 7.8 0.00 0.00 0.00 53 1012.6
20260905215602 96 28 3.5 11.3 0.00 0.00 0.00 48 1012.7
20260905215058 97 350 1.7 1.7 0.00 0.00 0.00 44 1012.2
20260905214555 98 28 1.7 2.6 0.00 0.00 0.00 42 1012.2
20260905214054 99 332 0.9 1.7 0.00 0.00 0.00 41 1012.0
20260905213550 100 351 0.9 1.7 0.00 0.00 0.00 41 1011.8
20260905213045 101 35 1.7 3.5 0.00 0.00 0.00 40 1011.7
20260905212545 102 262 0.0 6.1 0.00 0.00 0.00 39 1011.8
20260905212045 101 328 0.0 1.7 0.00 0.00 0.00 37 1011.7
20260905211540 101 347 1.7 2.6 0.00 0.00 0.00 36 1012.0
20260905211036 102 20 2.6 5.2 0.00 0.00 0.00 37 1011.8
20260905210532 101 302 0.9 0.9 0.00 0.00 0.00 37 1011.9
20260905210032 101 333 0.9 2.6 0.00 0.00 0.00 39 1011.7
20260905205531 103 272 0.0 5.2 0.00 0.00 0.00 39 1011.8
20260905205030 105 317 0.0 0.9 0.00 0.00 0.00 36 1011.9
20260905204525 105 277 0.0 1.7 0.00 0.00 0.00 36 1011.9
20260905204021 103 266 0.0 0.9 0.00 0.00 0.00 38 1012.1
20260905203520 102 261 0.0 1.7 0.00 0.00 0.00 38 1012.3
20260905203016 101 249 0.0 0.9 0.00 0.00 0.00 39 1012.2
20260905202511 100 34 0.9 2.6 0.00 0.00 0.00 39 1012.4
20260905202006 100 294 0.0 1.7 0.00 0.00 0.00 40 1012.2
20260905201502 101 13 1.7 3.5 0.00 0.00 0.00 38 1012.3
20260905201001 102 56 4.3 6.1 0.00 0.00 0.00 38 1012.6
20260905200457 103 78 3.5 6.1 0.00 0.00 0.00 37 1012.3
20260905195955 103 231 0.0 1.7 0.00 0.00 0.00 37 1012.3
20260905195450 102 296 1.7 2.6 0.00 0.00 0.00 38 1012.5
20260905194946 102 332 1.7 3.5 0.00 0.00 0.00 37 1012.5
20260905194445 102 339 1.7 1.7 0.00 0.00 0.00 38 1012.7
20260905193940 99 274 0.0 0.9 0.00 0.00 0.00 41 1012.6
20260905193440 100 329 0.9 2.6 0.00 0.00 0.00 40 1012.6
20260905192935 102 30 4.3 5.2 0.00 0.00 0.00 37 1012.8
20260905192431 101 274 0.9 1.7 0.00 0.00 0.00 38 1012.9
20260905191926 100 73 0.0 5.2 0.00 0.00 0.00 39 1012.9
20260905191420 102 293 0.0 1.7 0.00 0.00 0.00 38 1013.1
20260905190920 101 21 0.0 1.7 0.00 0.00 0.00 38 1013.1
20260905190418 100 202 0.9 1.7 0.00 0.00 0.00 40 1013.2
20260905185916 99 297 0.9 1.7 0.00 0.00 0.00 42 1013.2
20260905185412 100 342 2.6 3.5 0.00 0.00 0.00 42 1013.4
20260905184911 102 27 4.3 5.2 0.00 0.00 0.00 40 1013.6
20260905184411 103 187 1.7 3.5 0.00 0.00 0.00 40 1013.4
20260905183909 102 258 0.9 0.9 0.00 0.00 0.00 41 1013.5
20260905183404 101 312 0.9 1.7 0.00 0.00 0.00 41 1013.7
20260905182859 100 187 2.6 3.5 0.00 0.00 0.00 43 1013.6
20260905182358 101 18 4.3 5.2 0.00 0.00 0.00 41 1013.9
20260905181855 100 191 0.9 1.7 0.00 0.00 0.00 42 1014.0
20260905181354 98 56 1.7 3.5 0.00 0.00 0.00 41 1014.0
20260905180853 99 19 0.9 5.2 0.00 0.00 0.00 43 1013.9
20260905180349 100 31 4.3 5.2 0.00 0.00 0.00 45 1014.1
20260905175844 98 8 0.9 1.7 0.00 0.00 0.00 45 1014.0
20260905175343 98 359 2.6 3.5 0.00 0.00 0.00 47 1014.2
20260905174838 99 20 4.3 6.1 0.00 0.00 0.00 47 1014.3
20260905174335 99 4 0.9 3.5 0.00 0.00 0.00 44 1014.4
20260905173830 99 324 0.9 2.6 0.00 0.00 0.00 45 1014.4
20260905173326 99 285 0.0 5.2 0.00 0.00 0.00 46 1014.2
20260905172826 99 280 0.9 3.5 0.00 0.00 0.00 46 1014.3
20260905172324 99 346 1.7 5.2 0.00 0.00 0.00 47 1014.5
20260905171820 98 249 0.0 1.7 0.00 0.00 0.00 49 1014.6
20260905171317 98 152 2.6 3.5 0.00 0.00 0.00 47 1014.8
20260905170813 98 42 1.7 3.5 0.00 0.00 0.00 47 1014.7
20260905170308 99 98 2.6 7.0 0.00 0.00 0.00 47 1014.7
20260905165807 99 258 0.9 1.7 0.00 0.00 0.00 48 1014.8
20260905165306 99 321 0.9 3.5 0.00 0.00 0.00 48 1014.9
20260905164803 98 282 0.9 1.7 0.00 0.00 0.00 50 1014.9
20260905164258 96 326 0.9 2.6 0.00 0.00 0.00 51 1014.9
20260905163753 95 292 0.0 1.7 0.00 0.00 0.00 52 1014.8
20260905163250 95 56 3.5 6.1 0.00 0.00 0.00 52 1015.1
20260905162746 96 61 5.2 6.1 0.00 0.00 0.00 51 1015.0
20260905162245 96 309 0.9 2.6 0.00 0.00 0.00 54 1015.3
20260905161739 95 278 0.0 2.6 0.00 0.00 0.00 54 1015.3
20260905161239 94 98 0.0 5.2 0.00 0.00 0.00 55 1015.4
20260905160737 95 206 0.9 2.6 0.00 0.00 0.00 54 1015.4
20260905160237 95 285 0.0 2.6 0.00 0.00 0.00 53 1015.6
20260905155732 96 263 1.7 2.6 0.00 0.00 0.00 53 1015.7
20260905155231 95 34 0.9 1.7 0.00 0.00 0.00 54 1015.5
20260905154725 95 225 0.9 2.6 0.00 0.00 0.00 54 1015.7
20260905154221 95 292 0.0 1.7 0.00 0.00 0.00 57 1015.7
20260905153716 94 97 0.9 1.7 0.00 0.00 0.00 56 1015.7
20260905153212 94 288 0.9 0.9 0.00 0.00 0.00 59 1015.9
20260905152707 93 295 0.0 0.9 0.00 0.00 0.00 60 1015.9
20260905152201 93 267 0.9 0.9 0.00 0.00 0.00 61 1015.7
20260905151656 94 238 1.7 2.6 0.00 0.00 0.00 58 1015.9
20260905151151 93 280 0.9 0.9 0.00 0.00 0.00 59 1015.7
20260905150646 93 198 0.0 0.9 0.00 0.00 0.00 59 1015.8
20260905150145 92 199 0.9 1.7 0.00 0.00 0.00 60 1015.9
20260905145643 91 278 0.0 0.0 0.00 0.00 0.00 63 1015.9
20260905145143 91 282 0.9 0.9 0.00 0.00 0.00 64 1015.9
20260905144637 91 285 0.0 0.0 0.00 0.00 0.00 65 1015.9
20260905144136 89 288 0.0 0.9 0.00 0.00 0.00 66 1015.8
20260905143632 89 263 0.9 0.9 0.00 0.00 0.00 66 1015.8
20260905143132 89 178 0.9 1.7 0.00 0.00 0.00 65 1016.0
20260905142630 89 266 0.0 0.9 0.00 0.00 0.00 67 1016.1
20260905142130 88 259 0.0 0.9 0.00 0.00 0.00 68 1015.9
20260905141624 87 267 0.0 0.9 0.00 0.00 0.00 69 1016.0
20260905141121 87 247 0.9 0.9 0.00 0.00 0.00 70 1016.0
20260905140616 87 124 1.7 1.7 0.00 0.00 0.00 69 1016.0
20260905140115 86 320 0.0 0.9 0.00 0.00 0.00 71 1016.0
20260905135610 86 278 0.0 0.9 0.00 0.00 0.00 74 1016.3
20260905135105 85 272 0.0 0.9 0.00 0.00 0.00 74 1016.5
20260905134600 85 285 0.0 0.9 0.00 0.00 0.00 75 1016.5
20260905134059 84 299 0.0 0.9 0.00 0.00 0.00 77 1016.4
20260905133555 84 261 0.0 0.0 0.00 0.00 0.00 76 1016.4
20260905133054 83 300 0.0 0.0 0.00 0.00 0.00 77 1016.6
20260905132554 83 269 0.0 0.0 0.00 0.00 0.00 77 1016.7
20260905132049 82 296 0.0 0.0 0.00 0.00 0.00 79 1016.5
20260905131544 81 284 0.0 0.0 0.00 0.00 0.00 81 1016.6
20260905131040 81 276 0.0 0.9 0.00 0.00 0.00 81 1016.7
20260905130538 80 285 0.0 0.0 0.00 0.00 0.00 83 1016.8
20260905130034 79 288 0.0 0.0 0.00 0.00 0.00 85 1016.8
20260905125533 78 293 0.0 0.0 0.00 0.00 0.00 88 1016.8
20260905125029 77 299 0.0 0.0 0.00 0.00 0.00 91 1016.7
20260905124525 75 291 0.0 0.0 0.00 0.00 0.00 93 1016.7
20260905124021 75 287 0.0 0.0 0.00 0.00 0.00 94 1016.6
20260905123517 74 291 0.0 0.0 0.00 0.00 0.00 94 1016.7
20260905123013 74 335 0.0 0.0 0.00 0.00 0.00 95 1016.5
20260905122508 73 333 0.0 0.9 0.00 0.00 0.00 96 1016.4
20260905122003 73 271 0.0 0.0 0.00 0.00 0.00 96 1016.7
20260905121457 73 294 0.0 0.0 0.00 0.00 0.00 96 1016.5
20260905120956 72 286 0.0 0.0 0.00 0.00 0.00 96 1016.6
20260905120451 72 286 0.0 0.0 0.00 0.00 0.00 96 1016.1
20260905115946 72 285 0.0 0.0 0.00 0.00 0.00 96 1016.3
20260905115446 72 285 0.0 0.0 0.00 0.00 0.00 96 1016.1
20260905114941 71 285 0.0 0.0 0.00 0.00 0.00 96 1016.1
20260905114440 71 286 0.0 0.0 0.00 0.00 0.00 96 1016.1
20260905113938 71 285 0.0 0.0 0.00 0.00 0.00 96 1015.9
20260905113435 71 285 0.0 0.0 0.00 0.00 0.00 96 1015.9
20260905112930 71 285 0.0 0.0 0.00 0.00 0.00 96 1015.9
20260905112425 71 286 0.0 0.0 0.00 0.00 0.00 96 1015.8
20260905111920 71 289 0.0 0.0 0.00 0.00 0.00 96 1015.7
20260905111420 71 290 0.0 0.0 0.00 0.00 0.00 95 1015.7
20260905110914 71 290 0.0 0.0 0.00 0.00 0.00 95 1015.4
20260905110414 71 300 0.0 0.0 0.00 0.00 0.00 95 1015.6
20260905105909 72 299 0.0 0.0 0.00 0.00 0.00 95 1015.6
20260905105409 72 299 0.0 0.0 0.00 0.00 0.00 95 1015.5
20260905104908 72 317 0.0 0.0 0.00 0.00 0.00 95 1015.6
20260905104404 72 258 0.0 0.0 0.00 0.00 0.00 95 1015.4
20260905103904 72 259 0.0 0.0 0.00 0.00 0.00 95 1015.3
20260905103400 72 296 0.0 0.0 0.00 0.00 0.00 95 1015.3
20260905102856 72 300 0.0 0.0 0.00 0.00 0.00 95 1015.4
20260905102352 72 310 0.0 0.0 0.00 0.00 0.00 95 1015.3
20260905101852 72 314 0.0 0.0 0.00 0.00 0.00 95 1015.5
20260905101350 72 314 0.0 0.0 0.00 0.00 0.00 95 1015.5